MV Haksa — T8A2512 — position and weather

sailwx.info

Track history (hours):
 
Tides and Currents Weather Stations Pressure Air Temp Water Temp Dewpoint Dewpoint Depression Visibility Wind Speed Wind Dir Waves Ship Positions

MV Haksa

Last reported at 2018-Jun-10 02:57 UTC. Time now 2018-Jun-20 11:43 UTC.
Position N 40°34' E 027°44'.
Warning: this ship's position is 10 days out of date.

Length 85 m; draft 5.4 m.

Type: Cargo ship. MMSI: 511434000.

Date/timePositionNaut miles runAvg speedWind from/ knotsBaromVisibWave heightAir tempDewpointWater temp
2018-Jun-10 02:57N 40°34' E 027°44'29 5.6
2018-Jun-09 21:51N 40°38' E 028°21'1 1.0
2018-Jun-09 21:16N 40°38' E 028°22'  
2018-Jun-04 17:11N 37°49' E 025°42'210.0
2018-Jun-04 17:00N 37°48' E 025°40'14 9.5
2018-Jun-04 15:29N 37°38' E 025°27'26 9.1
2018-Jun-04 12:40N 37°25' E 024°59'1 4.3
2018-Jun-04 12:30N 37°25' E 024°58'0 0.3
2018-Jun-04 11:59N 37°25' E 024°58'0 0.0
2018-Jun-04 11:17N 37°25' E 024°58'0 0.1
2018-Jun-04 10:59N 37°25' E 024°59'0 0.0
2018-Jun-04 10:26N 37°25' E 024°59'0 0.0
2018-Jun-04 09:50N 37°25' E 024°59'0 0.0
2018-Jun-04 09:08N 37°25' E 024°59'0 0.0
2018-Jun-04 08:59N 37°25' E 024°59'0 0.0
2018-Jun-04 08:17N 37°25' E 024°59'0 0.0
2018-Jun-04 07:56N 37°25' E 024°59'0 0.0
2018-Jun-04 07:23N 37°25' E 024°59'0 0.0
2018-Jun-04 06:56N 37°25' E 024°59'0 0.0
2018-Jun-04 06:26N 37°25' E 024°59'0 0.0
2018-Jun-04 05:50N 37°25' E 024°59'0 0.0
2018-Jun-04 05:26N 37°25' E 024°59'0 0.0
2018-Jun-04 04:50N 37°25' E 024°59'0 0.0
2018-Jun-04 04:29N 37°25' E 024°59'0 0.0
2018-Jun-04 03:59N 37°25' E 024°59'0 0.0
2018-Jun-04 03:23N 37°25' E 024°59'0 0.0
2018-Jun-04 02:56N 37°25' E 024°59'0 0.1
2018-Jun-04 02:14N 37°25' E 024°58'0 0.0
2018-Jun-04 01:59N 37°25' E 024°58'0 0.1
2018-Jun-04 01:29N 37°25' E 024°58'0 0.1
2018-Jun-04 00:59N 37°25' E 024°59'0 0.0
2018-Jun-04 00:29N 37°25' E 024°58'0 0.1
2018-Jun-03 23:59N 37°25' E 024°58'0 0.0
2018-Jun-03 23:20N 37°25' E 024°58'0 0.0
2018-Jun-03 22:59N 37°25' E 024°58'0 0.0
2018-Jun-03 22:26N 37°25' E 024°58'0 0.1
2018-Jun-03 21:56N 37°25' E 024°58'0 0.0
2018-Jun-03 21:29N 37°25' E 024°58'0 0.0
2018-Jun-03 20:59N 37°25' E 024°58'0 0.0
2018-Jun-03 18:38N 37°25' E 024°59'0 0.1
2018-Jun-03 18:26N 37°25' E 024°59'0 0.0
2018-Jun-03 17:56N 37°25' E 024°59'0 0.0
2018-Jun-03 17:29N 37°25' E 024°59'0 0.0
2018-Jun-03 16:59N 37°25' E 024°59'0 0.0
2018-Jun-03 16:20N 37°25' E 024°59'0 0.0
2018-Jun-03 15:56N 37°25' E 024°59'0 0.0
2018-Jun-03 15:26N 37°25' E 024°59'0 0.0
2018-Jun-03 14:53N 37°25' E 024°59'0 0.0
2018-Jun-03 14:26N 37°25' E 024°59'0 0.0
2018-Jun-03 13:59N 37°25' E 024°59'0 0.0
2018-Jun-03 13:29N 37°25' E 024°58'0 0.1
2018-Jun-03 12:44N 37°25' E 024°58'1 2.6
2018-Jun-03 12:27N 37°25' E 024°59'11 7.0
2018-Jun-03 10:52N 37°32' E 024°48'50 9.1
2018-Jun-03 05:21N 37°37' E 023°45'4 9.4
2018-Jun-03 04:58N 37°38' E 023°41'4 9.7
2018-Jun-03 04:31N 37°42' E 023°39'5 9.8
2018-Jun-03 04:00N 37°47' E 023°36'5 9.7
2018-Jun-03 03:30N 37°50' E 023°31'5 9.7
2018-Jun-03 03:00N 37°51' E 023°25'5 9.7
2018-Jun-03 02:31N 37°51' E 023°19'5 9.5
2018-Jun-03 02:00N 37°52' E 023°13'5 9.6
2018-Jun-03 01:30N 37°53' E 023°07'5 9.5
2018-Jun-03 01:00N 37°54' E 023°01'3 3.3
2018-Jun-02 23:58N 37°57' E 022°58'2 5.2
2018-Jun-02 23:31N 37°58' E 022°56'0 0.6
2018-Jun-02 23:00N 37°58' E 022°55'0 0.9
2018-Jun-02 22:30N 37°58' E 022°55'2 4.5
2018-Jun-02 22:00N 37°60' E 022°53'5 9.6
2018-Jun-02 21:29N 38°02' E 022°47'  
Track history (hours):
 
Tides and Currents Weather Stations Pressure Air Temp Water Temp Dewpoint Dewpoint Depression Visibility Wind Speed Wind Dir Waves Ship Positions

MV Haksa

Last reported at 2018-Jun-10 02:57 UTC. Time now 2018-Jun-20 11:43 UTC.
Position N 40°34' E 027°44'.
Warning: this ship's position is 10 days out of date.

Length 85 m; draft 5.4 m.

Type: Cargo ship. MMSI: 511434000.

Date/timePositionNaut miles runAvg speedWind from/ knotsBaromVisibWave heightAir tempDewpointWater temp
2018-Jun-10 02:57N 40°34' E 027°44'29 5.6
2018-Jun-09 21:51N 40°38' E 028°21'1 1.0
2018-Jun-09 21:16N 40°38' E 028°22'  
2018-Jun-04 17:11N 37°49' E 025°42'210.0
2018-Jun-04 17:00N 37°48' E 025°40'14 9.5
2018-Jun-04 15:29N 37°38' E 025°27'26 9.1
2018-Jun-04 12:40N 37°25' E 024°59'1 4.3
2018-Jun-04 12:30N 37°25' E 024°58'0 0.3
2018-Jun-04 11:59N 37°25' E 024°58'0 0.0
2018-Jun-04 11:17N 37°25' E 024°58'0 0.1
2018-Jun-04 10:59N 37°25' E 024°59'0 0.0
2018-Jun-04 10:26N 37°25' E 024°59'0 0.0
2018-Jun-04 09:50N 37°25' E 024°59'0 0.0
2018-Jun-04 09:08N 37°25' E 024°59'0 0.0
2018-Jun-04 08:59N 37°25' E 024°59'0 0.0
2018-Jun-04 08:17N 37°25' E 024°59'0 0.0
2018-Jun-04 07:56N 37°25' E 024°59'0 0.0
2018-Jun-04 07:23N 37°25' E 024°59'0 0.0
2018-Jun-04 06:56N 37°25' E 024°59'0 0.0
2018-Jun-04 06:26N 37°25' E 024°59'0 0.0
2018-Jun-04 05:50N 37°25' E 024°59'0 0.0
2018-Jun-04 05:26N 37°25' E 024°59'0 0.0
2018-Jun-04 04:50N 37°25' E 024°59'0 0.0
2018-Jun-04 04:29N 37°25' E 024°59'0 0.0
2018-Jun-04 03:59N 37°25' E 024°59'0 0.0
2018-Jun-04 03:23N 37°25' E 024°59'0 0.0
2018-Jun-04 02:56N 37°25' E 024°59'0 0.1
2018-Jun-04 02:14N 37°25' E 024°58'0 0.0
2018-Jun-04 01:59N 37°25' E 024°58'0 0.1
2018-Jun-04 01:29N 37°25' E 024°58'0 0.1
2018-Jun-04 00:59N 37°25' E 024°59'0 0.0
2018-Jun-04 00:29N 37°25' E 024°58'0 0.1
2018-Jun-03 23:59N 37°25' E 024°58'0 0.0
2018-Jun-03 23:20N 37°25' E 024°58'0 0.0
2018-Jun-03 22:59N 37°25' E 024°58'0 0.0
2018-Jun-03 22:26N 37°25' E 024°58'0 0.1
2018-Jun-03 21:56N 37°25' E 024°58'0 0.0
2018-Jun-03 21:29N 37°25' E 024°58'0 0.0
2018-Jun-03 20:59N 37°25' E 024°58'0 0.0
2018-Jun-03 18:38N 37°25' E 024°59'0 0.1
2018-Jun-03 18:26N 37°25' E 024°59'0 0.0
2018-Jun-03 17:56N 37°25' E 024°59'0 0.0
2018-Jun-03 17:29N 37°25' E 024°59'0 0.0
2018-Jun-03 16:59N 37°25' E 024°59'0 0.0
2018-Jun-03 16:20N 37°25' E 024°59'0 0.0
2018-Jun-03 15:56N 37°25' E 024°59'0 0.0
2018-Jun-03 15:26N 37°25' E 024°59'0 0.0
2018-Jun-03 14:53N 37°25' E 024°59'0 0.0
2018-Jun-03 14:26N 37°25' E 024°59'0 0.0
2018-Jun-03 13:59N 37°25' E 024°59'0 0.0
2018-Jun-03 13:29N 37°25' E 024°58'0 0.1
2018-Jun-03 12:44N 37°25' E 024°58'1 2.6
2018-Jun-03 12:27N 37°25' E 024°59'11 7.0
2018-Jun-03 10:52N 37°32' E 024°48'50 9.1
2018-Jun-03 05:21N 37°37' E 023°45'4 9.4
2018-Jun-03 04:58N 37°38' E 023°41'4 9.7
2018-Jun-03 04:31N 37°42' E 023°39'5 9.8
2018-Jun-03 04:00N 37°47' E 023°36'5 9.7
2018-Jun-03 03:30N 37°50' E 023°31'5 9.7
2018-Jun-03 03:00N 37°51' E 023°25'5 9.7
2018-Jun-03 02:31N 37°51' E 023°19'5 9.5
2018-Jun-03 02:00N 37°52' E 023°13'5 9.6
2018-Jun-03 01:30N 37°53' E 023°07'5 9.5
2018-Jun-03 01:00N 37°54' E 023°01'3 3.3
2018-Jun-02 23:58N 37°57' E 022°58'2 5.2
2018-Jun-02 23:31N 37°58' E 022°56'0 0.6
2018-Jun-02 23:00N 37°58' E 022°55'0 0.9
2018-Jun-02 22:30N 37°58' E 022°55'2 4.5
2018-Jun-02 22:00N 37°60' E 022°53'5 9.6
2018-Jun-02 21:29N 38°02' E 022°47'  

Dump ship's entire track history